sensor_id;sensor_type;location;lat;lon;timestamp;P1;durP1;ratioP1;P2;durP2;ratioP2
23282;SDS011;11810;51.178;3.878;2023-04-15T00:01:28;4.78;;;3.33;;
23282;SDS011;11810;51.178;3.878;2023-04-15T00:03:54;7.05;;;3.33;;
23282;SDS011;11810;51.178;3.878;2023-04-15T00:06:20;4.30;;;3.42;;
23282;SDS011;11810;51.178;3.878;2023-04-15T00:08:47;5.70;;;3.88;;
23282;SDS011;11810;51.178;3.878;2023-04-15T00:11:14;7.57;;;4.22;;
23282;SDS011;11810;51.178;3.878;2023-04-15T00:13:41;5.75;;;3.80;;
23282;SDS011;11810;51.178;3.878;2023-04-15T00:16:08;4.57;;;4.05;;
23282;SDS011;11810;51.178;3.878;2023-04-15T00:18:34;4.85;;;3.55;;
23282;SDS011;11810;51.178;3.878;2023-04-15T00:21:01;8.93;;;4.18;;
23282;SDS011;11810;51.178;3.878;2023-04-15T00:23:28;7.32;;;4.43;;
23282;SDS011;11810;51.178;3.878;2023-04-15T00:25:54;8.57;;;4.82;;
23282;SDS011;11810;51.178;3.878;2023-04-15T00:28:21;7.32;;;5.22;;
23282;SDS011;11810;51.178;3.878;2023-04-15T00:30:46;5.68;;;4.68;;
23282;SDS011;11810;51.178;3.878;2023-04-15T00:33:13;7.90;;;4.50;;
23282;SDS011;11810;51.178;3.878;2023-04-15T00:35:40;7.85;;;5.30;;
23282;SDS011;11810;51.178;3.878;2023-04-15T00:38:06;7.38;;;5.20;;
23282;SDS011;11810;51.178;3.878;2023-04-15T00:40:32;6.28;;;4.88;;
23282;SDS011;11810;51.178;3.878;2023-04-15T00:42:59;5.38;;;4.53;;
23282;SDS011;11810;51.178;3.878;2023-04-15T00:45:25;6.53;;;4.32;;
23282;SDS011;11810;51.178;3.878;2023-04-15T00:47:55;5.20;;;4.00;;
23282;SDS011;11810;51.178;3.878;2023-04-15T00:50:21;6.38;;;4.45;;
23282;SDS011;11810;51.178;3.878;2023-04-15T00:52:47;8.07;;;4.82;;
23282;SDS011;11810;51.178;3.878;2023-04-15T00:55:14;6.25;;;4.60;;
23282;SDS011;11810;51.178;3.878;2023-04-15T00:57:40;5.68;;;4.63;;
23282;SDS011;11810;51.178;3.878;2023-04-15T01:00:07;5.05;;;4.15;;
23282;SDS011;11810;51.178;3.878;2023-04-15T01:02:34;5.60;;;4.40;;
23282;SDS011;11810;51.178;3.878;2023-04-15T01:05:00;7.28;;;4.43;;
23282;SDS011;11810;51.178;3.878;2023-04-15T01:07:28;4.97;;;4.47;;
23282;SDS011;11810;51.178;3.878;2023-04-15T01:09:54;6.93;;;4.82;;
23282;SDS011;11810;51.178;3.878;2023-04-15T01:12:21;5.82;;;4.90;;
23282;SDS011;11810;51.178;3.878;2023-04-15T01:14:49;5.40;;;4.70;;
23282;SDS011;11810;51.178;3.878;2023-04-15T01:17:15;7.68;;;5.45;;
23282;SDS011;11810;51.178;3.878;2023-04-15T01:19:41;6.00;;;4.72;;
23282;SDS011;11810;51.178;3.878;2023-04-15T01:22:08;7.45;;;5.10;;
23282;SDS011;11810;51.178;3.878;2023-04-15T01:24:34;8.35;;;5.00;;
23282;SDS011;11810;51.178;3.878;2023-04-15T01:27:01;6.03;;;4.72;;
23282;SDS011;11810;51.178;3.878;2023-04-15T01:29:30;6.32;;;5.15;;
23282;SDS011;11810;51.178;3.878;2023-04-15T01:31:57;6.70;;;5.05;;
23282;SDS011;11810;51.178;3.878;2023-04-15T01:34:23;11.25;;;5.50;;
23282;SDS011;11810;51.178;3.878;2023-04-15T01:36:49;5.65;;;4.32;;
23282;SDS011;11810;51.178;3.878;2023-04-15T01:39:15;7.28;;;5.10;;
23282;SDS011;11810;51.178;3.878;2023-04-15T01:41:41;6.97;;;5.00;;
23282;SDS011;11810;51.178;3.878;2023-04-15T01:44:07;6.55;;;4.30;;
23282;SDS011;11810;51.178;3.878;2023-04-15T01:46:33;7.68;;;4.82;;
23282;SDS011;11810;51.178;3.878;2023-04-15T01:49:00;6.03;;;4.07;;
23282;SDS011;11810;51.178;3.878;2023-04-15T01:51:26;6.57;;;4.80;;
23282;SDS011;11810;51.178;3.878;2023-04-15T01:53:52;5.43;;;4.25;;
23282;SDS011;11810;51.178;3.878;2023-04-15T01:56:21;4.78;;;4.10;;
23282;SDS011;11810;51.178;3.878;2023-04-15T01:58:48;5.28;;;4.30;;
23282;SDS011;11810;51.178;3.878;2023-04-15T02:01:14;6.53;;;3.67;;
23282;SDS011;11810;51.178;3.878;2023-04-15T02:03:41;5.03;;;3.75;;
23282;SDS011;11810;51.178;3.878;2023-04-15T02:06:07;4.93;;;3.90;;
23282;SDS011;11810;51.178;3.878;2023-04-15T02:08:33;5.57;;;4.13;;
23282;SDS011;11810;51.178;3.878;2023-04-15T02:10:59;6.30;;;4.25;;
23282;SDS011;11810;51.178;3.878;2023-04-15T02:13:25;5.65;;;4.75;;
23282;SDS011;11810;51.178;3.878;2023-04-15T02:15:51;6.28;;;5.00;;
23282;SDS011;11810;51.178;3.878;2023-04-15T02:18:19;9.05;;;5.30;;
23282;SDS011;11810;51.178;3.878;2023-04-15T02:20:45;9.25;;;5.68;;
23282;SDS011;11810;51.178;3.878;2023-04-15T02:23:11;7.95;;;5.95;;
23282;SDS011;11810;51.178;3.878;2023-04-15T02:25:37;8.98;;;6.00;;
23282;SDS011;11810;51.178;3.878;2023-04-15T02:28:04;11.40;;;6.95;;
23282;SDS011;11810;51.178;3.878;2023-04-15T02:30:31;10.00;;;6.38;;
23282;SDS011;11810;51.178;3.878;2023-04-15T02:32:57;9.55;;;7.32;;
23282;SDS011;11810;51.178;3.878;2023-04-15T02:35:24;11.18;;;8.20;;
23282;SDS011;11810;51.178;3.878;2023-04-15T02:37:50;11.02;;;8.25;;
23282;SDS011;11810;51.178;3.878;2023-04-15T02:40:16;13.85;;;10.52;;
23282;SDS011;11810;51.178;3.878;2023-04-15T02:42:43;18.13;;;12.00;;
23282;SDS011;11810;51.178;3.878;2023-04-15T02:45:09;16.95;;;12.80;;
23282;SDS011;11810;51.178;3.878;2023-04-15T02:47:37;17.27;;;12.48;;
23282;SDS011;11810;51.178;3.878;2023-04-15T02:50:10;20.15;;;14.10;;
23282;SDS011;11810;51.178;3.878;2023-04-15T02:52:40;17.85;;;14.20;;
23282;SDS011;11810;51.178;3.878;2023-04-15T02:55:07;18.83;;;13.60;;
23282;SDS011;11810;51.178;3.878;2023-04-15T02:57:34;22.83;;;15.30;;
23282;SDS011;11810;51.178;3.878;2023-04-15T03:00:02;26.48;;;16.83;;
23282;SDS011;11810;51.178;3.878;2023-04-15T03:02:35;21.80;;;16.88;;
23282;SDS011;11810;51.178;3.878;2023-04-15T03:05:02;20.77;;;16.73;;
23282;SDS011;11810;51.178;3.878;2023-04-15T03:07:30;21.15;;;16.45;;
23282;SDS011;11810;51.178;3.878;2023-04-15T03:09:56;24.65;;;16.40;;
23282;SDS011;11810;51.178;3.878;2023-04-15T03:12:22;19.85;;;16.70;;
23282;SDS011;11810;51.178;3.878;2023-04-15T03:14:48;23.42;;;17.73;;
23282;SDS011;11810;51.178;3.878;2023-04-15T03:17:13;23.80;;;18.58;;
23282;SDS011;11810;51.178;3.878;2023-04-15T03:19:39;24.60;;;18.33;;
23282;SDS011;11810;51.178;3.878;2023-04-15T03:22:05;28.48;;;19.67;;
23282;SDS011;11810;51.178;3.878;2023-04-15T03:24:31;26.90;;;19.77;;
23282;SDS011;11810;51.178;3.878;2023-04-15T03:26:57;26.20;;;19.98;;
23282;SDS011;11810;51.178;3.878;2023-04-15T03:29:23;25.83;;;20.90;;
23282;SDS011;11810;51.178;3.878;2023-04-15T03:31:51;27.88;;;22.00;;
23282;SDS011;11810;51.178;3.878;2023-04-15T03:34:17;30.83;;;22.27;;
23282;SDS011;11810;51.178;3.878;2023-04-15T03:36:45;28.02;;;22.27;;
23282;SDS011;11810;51.178;3.878;2023-04-15T03:39:11;27.23;;;20.65;;
23282;SDS011;11810;51.178;3.878;2023-04-15T03:41:37;28.00;;;21.75;;
23282;SDS011;11810;51.178;3.878;2023-04-15T03:44:03;34.90;;;21.83;;
23282;SDS011;11810;51.178;3.878;2023-04-15T03:46:29;29.25;;;21.20;;
23282;SDS011;11810;51.178;3.878;2023-04-15T03:48:55;28.70;;;20.33;;
23282;SDS011;11810;51.178;3.878;2023-04-15T03:51:21;28.85;;;20.67;;
23282;SDS011;11810;51.178;3.878;2023-04-15T03:53:47;29.67;;;18.23;;
23282;SDS011;11810;51.178;3.878;2023-04-15T03:56:12;24.48;;;18.13;;
23282;SDS011;11810;51.178;3.878;2023-04-15T03:58:38;24.63;;;17.83;;
23282;SDS011;11810;51.178;3.878;2023-04-15T04:01:04;26.65;;;17.67;;
23282;SDS011;11810;51.178;3.878;2023-04-15T04:03:30;23.38;;;17.30;;
23282;SDS011;11810;51.178;3.878;2023-04-15T04:05:56;29.10;;;17.92;;
23282;SDS011;11810;51.178;3.878;2023-04-15T04:08:22;24.80;;;15.95;;
23282;SDS011;11810;51.178;3.878;2023-04-15T04:10:48;21.50;;;15.20;;
23282;SDS011;11810;51.178;3.878;2023-04-15T04:13:14;22.38;;;15.90;;
23282;SDS011;11810;51.178;3.878;2023-04-15T04:15:40;23.20;;;15.32;;
23282;SDS011;11810;51.178;3.878;2023-04-15T04:18:06;23.83;;;16.33;;
23282;SDS011;11810;51.178;3.878;2023-04-15T04:20:32;21.60;;;14.57;;
23282;SDS011;11810;51.178;3.878;2023-04-15T04:22:58;20.48;;;14.57;;
23282;SDS011;11810;51.178;3.878;2023-04-15T04:25:24;22.70;;;15.18;;
23282;SDS011;11810;51.178;3.878;2023-04-15T04:27:51;20.13;;;14.32;;
23282;SDS011;11810;51.178;3.878;2023-04-15T04:30:17;29.75;;;16.27;;
23282;SDS011;11810;51.178;3.878;2023-04-15T04:32:43;20.08;;;15.02;;
23282;SDS011;11810;51.178;3.878;2023-04-15T04:35:09;18.23;;;14.82;;
23282;SDS011;11810;51.178;3.878;2023-04-15T04:37:35;18.33;;;12.90;;
23282;SDS011;11810;51.178;3.878;2023-04-15T04:40:01;22.45;;;14.82;;
23282;SDS011;11810;51.178;3.878;2023-04-15T04:42:27;21.00;;;14.32;;
23282;SDS011;11810;51.178;3.878;2023-04-15T04:44:54;18.75;;;13.40;;
23282;SDS011;11810;51.178;3.878;2023-04-15T04:47:20;21.35;;;14.25;;
23282;SDS011;11810;51.178;3.878;2023-04-15T04:49:46;20.88;;;13.25;;
23282;SDS011;11810;51.178;3.878;2023-04-15T04:52:11;20.92;;;13.30;;
23282;SDS011;11810;51.178;3.878;2023-04-15T04:54:37;17.70;;;14.32;;
23282;SDS011;11810;51.178;3.878;2023-04-15T04:57:03;21.42;;;13.60;;
23282;SDS011;11810;51.178;3.878;2023-04-15T04:59:31;23.48;;;15.20;;
23282;SDS011;11810;51.178;3.878;2023-04-15T05:01:57;25.95;;;16.00;;
23282;SDS011;11810;51.178;3.878;2023-04-15T05:04:23;23.17;;;16.27;;
23282;SDS011;11810;51.178;3.878;2023-04-15T05:06:50;24.75;;;16.40;;
23282;SDS011;11810;51.178;3.878;2023-04-15T05:09:16;24.35;;;16.08;;
23282;SDS011;11810;51.178;3.878;2023-04-15T05:11:42;20.70;;;15.25;;
23282;SDS011;11810;51.178;3.878;2023-04-15T05:14:08;23.98;;;14.68;;
23282;SDS011;11810;51.178;3.878;2023-04-15T05:16:34;21.70;;;14.10;;
23282;SDS011;11810;51.178;3.878;2023-04-15T05:19:00;18.90;;;14.43;;
23282;SDS011;11810;51.178;3.878;2023-04-15T05:21:25;19.00;;;14.02;;
23282;SDS011;11810;51.178;3.878;2023-04-15T05:23:51;19.85;;;13.52;;
23282;SDS011;11810;51.178;3.878;2023-04-15T05:26:17;20.95;;;13.98;;
23282;SDS011;11810;51.178;3.878;2023-04-15T05:28:43;20.75;;;13.35;;
23282;SDS011;11810;51.178;3.878;2023-04-15T05:31:10;24.77;;;14.23;;
23282;SDS011;11810;51.178;3.878;2023-04-15T05:33:36;20.33;;;13.25;;
23282;SDS011;11810;51.178;3.878;2023-04-15T05:36:02;20.08;;;12.73;;
23282;SDS011;11810;51.178;3.878;2023-04-15T05:38:28;18.20;;;12.27;;
23282;SDS011;11810;51.178;3.878;2023-04-15T05:40:54;22.00;;;12.35;;
23282;SDS011;11810;51.178;3.878;2023-04-15T05:43:20;22.60;;;12.27;;
23282;SDS011;11810;51.178;3.878;2023-04-15T05:45:46;16.75;;;10.65;;
23282;SDS011;11810;51.178;3.878;2023-04-15T05:48:11;14.88;;;11.15;;
23282;SDS011;11810;51.178;3.878;2023-04-15T05:50:39;18.05;;;11.20;;
23282;SDS011;11810;51.178;3.878;2023-04-15T05:53:07;23.98;;;10.65;;
23282;SDS011;11810;51.178;3.878;2023-04-15T05:55:33;17.70;;;11.25;;
23282;SDS011;11810;51.178;3.878;2023-04-15T05:57:59;17.67;;;10.93;;
23282;SDS011;11810;51.178;3.878;2023-04-15T06:00:25;16.65;;;11.13;;
23282;SDS011;11810;51.178;3.878;2023-04-15T06:02:51;21.77;;;11.50;;
23282;SDS011;11810;51.178;3.878;2023-04-15T06:05:17;15.30;;;11.07;;
23282;SDS011;11810;51.178;3.878;2023-04-15T06:07:44;17.27;;;10.20;;
23282;SDS011;11810;51.178;3.878;2023-04-15T06:10:10;16.92;;;10.98;;
23282;SDS011;11810;51.178;3.878;2023-04-15T06:12:36;16.67;;;8.75;;
23282;SDS011;11810;51.178;3.878;2023-04-15T06:15:02;12.30;;;8.18;;
23282;SDS011;11810;51.178;3.878;2023-04-15T06:17:30;12.02;;;7.97;;
23282;SDS011;11810;51.178;3.878;2023-04-15T06:19:56;13.27;;;6.93;;
23282;SDS011;11810;51.178;3.878;2023-04-15T06:22:22;13.07;;;6.03;;
23282;SDS011;11810;51.178;3.878;2023-04-15T06:24:48;15.25;;;6.85;;
23282;SDS011;11810;51.178;3.878;2023-04-15T06:27:15;10.45;;;5.85;;
23282;SDS011;11810;51.178;3.878;2023-04-15T06:29:41;9.95;;;6.45;;
23282;SDS011;11810;51.178;3.878;2023-04-15T06:32:07;10.00;;;6.20;;
23282;SDS011;11810;51.178;3.878;2023-04-15T06:34:33;9.80;;;5.70;;
23282;SDS011;11810;51.178;3.878;2023-04-15T06:36:59;12.10;;;6.50;;
23282;SDS011;11810;51.178;3.878;2023-04-15T06:39:25;17.40;;;6.30;;
23282;SDS011;11810;51.178;3.878;2023-04-15T06:41:51;11.82;;;5.18;;
23282;SDS011;11810;51.178;3.878;2023-04-15T06:44:17;11.23;;;5.95;;
23282;SDS011;11810;51.178;3.878;2023-04-15T06:46:43;10.82;;;5.82;;
23282;SDS011;11810;51.178;3.878;2023-04-15T06:49:09;10.30;;;5.53;;
23282;SDS011;11810;51.178;3.878;2023-04-15T06:51:36;12.38;;;5.85;;
23282;SDS011;11810;51.178;3.878;2023-04-15T06:54:02;15.77;;;5.82;;
23282;SDS011;11810;51.178;3.878;2023-04-15T06:56:32;10.75;;;6.20;;
23282;SDS011;11810;51.178;3.878;2023-04-15T06:58:59;13.27;;;7.43;;
23282;SDS011;11810;51.178;3.878;2023-04-15T07:01:25;12.38;;;8.30;;
23282;SDS011;11810;51.178;3.878;2023-04-15T07:03:51;16.60;;;9.10;;
23282;SDS011;11810;51.178;3.878;2023-04-15T07:06:17;21.10;;;10.13;;
23282;SDS011;11810;51.178;3.878;2023-04-15T07:08:42;15.35;;;10.77;;
23282;SDS011;11810;51.178;3.878;2023-04-15T07:11:09;19.77;;;12.32;;
23282;SDS011;11810;51.178;3.878;2023-04-15T07:13:34;25.38;;;13.02;;
23282;SDS011;11810;51.178;3.878;2023-04-15T07:16:00;21.27;;;12.05;;
23282;SDS011;11810;51.178;3.878;2023-04-15T07:18:26;23.45;;;13.77;;
23282;SDS011;11810;51.178;3.878;2023-04-15T07:20:52;21.27;;;14.50;;
23282;SDS011;11810;51.178;3.878;2023-04-15T07:23:18;24.35;;;14.63;;
23282;SDS011;11810;51.178;3.878;2023-04-15T07:25:45;19.77;;;13.48;;
23282;SDS011;11810;51.178;3.878;2023-04-15T07:28:11;22.63;;;14.02;;
23282;SDS011;11810;51.178;3.878;2023-04-15T07:30:37;17.88;;;13.80;;
23282;SDS011;11810;51.178;3.878;2023-04-15T07:33:03;20.15;;;13.60;;
23282;SDS011;11810;51.178;3.878;2023-04-15T07:35:29;16.67;;;13.38;;
23282;SDS011;11810;51.178;3.878;2023-04-15T07:37:55;17.38;;;13.60;;
23282;SDS011;11810;51.178;3.878;2023-04-15T07:40:21;21.42;;;13.57;;
23282;SDS011;11810;51.178;3.878;2023-04-15T07:42:47;18.33;;;12.50;;
23282;SDS011;11810;51.178;3.878;2023-04-15T07:45:13;14.63;;;11.55;;
23282;SDS011;11810;51.178;3.878;2023-04-15T07:47:40;18.55;;;12.15;;
23282;SDS011;11810;51.178;3.878;2023-04-15T07:50:07;17.77;;;12.00;;
23282;SDS011;11810;51.178;3.878;2023-04-15T07:52:35;20.42;;;12.25;;
23282;SDS011;11810;51.178;3.878;2023-04-15T07:55:06;18.35;;;12.00;;
23282;SDS011;11810;51.178;3.878;2023-04-15T07:57:33;20.20;;;11.43;;
23282;SDS011;11810;51.178;3.878;2023-04-15T08:00:02;13.13;;;10.98;;
23282;SDS011;11810;51.178;3.878;2023-04-15T08:02:30;13.45;;;10.85;;
23282;SDS011;11810;51.178;3.878;2023-04-15T08:04:56;14.82;;;10.55;;
23282;SDS011;11810;51.178;3.878;2023-04-15T08:07:22;17.75;;;10.73;;
23282;SDS011;11810;51.178;3.878;2023-04-15T08:09:49;15.13;;;10.45;;
23282;SDS011;11810;51.178;3.878;2023-04-15T08:12:15;14.75;;;10.32;;
23282;SDS011;11810;51.178;3.878;2023-04-15T08:14:41;20.33;;;11.23;;
23282;SDS011;11810;51.178;3.878;2023-04-15T08:17:07;16.65;;;11.00;;
23282;SDS011;11810;51.178;3.878;2023-04-15T08:19:33;22.05;;;11.98;;
23282;SDS011;11810;51.178;3.878;2023-04-15T08:21:59;15.02;;;11.00;;
23282;SDS011;11810;51.178;3.878;2023-04-15T08:24:25;16.95;;;11.23;;
23282;SDS011;11810;51.178;3.878;2023-04-15T08:26:51;14.43;;;10.52;;
23282;SDS011;11810;51.178;3.878;2023-04-15T08:29:17;17.02;;;10.88;;
23282;SDS011;11810;51.178;3.878;2023-04-15T08:31:43;13.73;;;10.43;;
23282;SDS011;11810;51.178;3.878;2023-04-15T08:34:10;15.00;;;10.70;;
23282;SDS011;11810;51.178;3.878;2023-04-15T08:36:36;17.05;;;10.95;;
23282;SDS011;11810;51.178;3.878;2023-04-15T08:39:02;13.85;;;10.30;;
23282;SDS011;11810;51.178;3.878;2023-04-15T08:41:46;16.70;;;10.98;;
23282;SDS011;11810;51.178;3.878;2023-04-15T08:44:15;14.77;;;11.85;;
23282;SDS011;11810;51.178;3.878;2023-04-15T08:46:42;14.85;;;10.88;;
23282;SDS011;11810;51.178;3.878;2023-04-15T08:49:11;13.70;;;11.32;;
23282;SDS011;11810;51.178;3.878;2023-04-15T08:51:38;14.52;;;11.57;;
23282;SDS011;11810;51.178;3.878;2023-04-15T08:54:05;15.38;;;11.40;;
23282;SDS011;11810;51.178;3.878;2023-04-15T08:56:32;13.13;;;11.15;;
23282;SDS011;11810;51.178;3.878;2023-04-15T08:59:00;14.63;;;11.27;;
23282;SDS011;11810;51.178;3.878;2023-04-15T09:01:26;16.27;;;12.02;;
23282;SDS011;11810;51.178;3.878;2023-04-15T09:03:52;14.02;;;11.38;;
23282;SDS011;11810;51.178;3.878;2023-04-15T09:06:19;17.00;;;11.75;;
23282;SDS011;11810;51.178;3.878;2023-04-15T09:08:46;18.27;;;11.77;;
23282;SDS011;11810;51.178;3.878;2023-04-15T09:11:12;15.13;;;11.07;;
23282;SDS011;11810;51.178;3.878;2023-04-15T09:13:38;17.10;;;12.23;;
23282;SDS011;11810;51.178;3.878;2023-04-15T09:16:05;20.60;;;12.05;;
23282;SDS011;11810;51.178;3.878;2023-04-15T09:18:32;18.23;;;12.02;;
23282;SDS011;11810;51.178;3.878;2023-04-15T09:21:06;16.58;;;11.77;;
23282;SDS011;11810;51.178;3.878;2023-04-15T09:23:35;15.73;;;11.93;;
23282;SDS011;11810;51.178;3.878;2023-04-15T09:26:03;16.17;;;12.57;;
23282;SDS011;11810;51.178;3.878;2023-04-15T09:28:29;16.70;;;11.55;;
23282;SDS011;11810;51.178;3.878;2023-04-15T09:30:59;14.65;;;11.23;;
23282;SDS011;11810;51.178;3.878;2023-04-15T09:33:27;15.00;;;11.38;;
23282;SDS011;11810;51.178;3.878;2023-04-15T09:36:01;15.52;;;10.77;;
23282;SDS011;11810;51.178;3.878;2023-04-15T09:38:31;11.55;;;9.55;;
23282;SDS011;11810;51.178;3.878;2023-04-15T09:40:57;14.95;;;10.15;;
23282;SDS011;11810;51.178;3.878;2023-04-15T09:43:39;13.13;;;9.73;;
23282;SDS011;11810;51.178;3.878;2023-04-15T09:46:05;11.07;;;8.02;;
23282;SDS011;11810;51.178;3.878;2023-04-15T09:48:31;8.90;;;7.35;;
23282;SDS011;11810;51.178;3.878;2023-04-15T09:50:57;10.10;;;7.40;;
23282;SDS011;11810;51.178;3.878;2023-04-15T09:53:24;12.35;;;7.35;;
23282;SDS011;11810;51.178;3.878;2023-04-15T09:58:25;12.63;;;7.57;;
23282;SDS011;11810;51.178;3.878;2023-04-15T10:00:53;8.20;;;6.43;;
23282;SDS011;11810;51.178;3.878;2023-04-15T10:03:27;7.85;;;5.82;;
23282;SDS011;11810;51.178;3.878;2023-04-15T10:05:56;7.63;;;5.90;;
23282;SDS011;11810;51.178;3.878;2023-04-15T10:08:24;6.47;;;4.97;;
23282;SDS011;11810;51.178;3.878;2023-04-15T10:10:54;8.93;;;4.65;;
23282;SDS011;11810;51.178;3.878;2023-04-15T10:13:22;9.43;;;5.30;;
23282;SDS011;11810;51.178;3.878;2023-04-15T10:15:58;7.00;;;4.63;;
23282;SDS011;11810;51.178;3.878;2023-04-15T10:18:30;6.97;;;4.28;;
23282;SDS011;11810;51.178;3.878;2023-04-15T10:20:59;4.90;;;4.20;;
23282;SDS011;11810;51.178;3.878;2023-04-15T10:23:25;6.35;;;4.03;;
23282;SDS011;11810;51.178;3.878;2023-04-15T10:25:52;6.38;;;4.07;;
23282;SDS011;11810;51.178;3.878;2023-04-15T10:28:19;7.88;;;4.93;;
23282;SDS011;11810;51.178;3.878;2023-04-15T10:30:49;7.07;;;4.30;;
23282;SDS011;11810;51.178;3.878;2023-04-15T10:33:17;5.18;;;3.70;;
23282;SDS011;11810;51.178;3.878;2023-04-15T10:35:47;7.13;;;3.30;;
23282;SDS011;11810;51.178;3.878;2023-04-15T10:41:17;5.47;;;4.25;;
23282;SDS011;11810;51.178;3.878;2023-04-15T10:43:47;5.22;;;4.30;;
23282;SDS011;11810;51.178;3.878;2023-04-15T10:46:18;5.10;;;3.78;;
23282;SDS011;11810;51.178;3.878;2023-04-15T10:48:51;5.93;;;4.20;;
23282;SDS011;11810;51.178;3.878;2023-04-15T10:51:27;6.25;;;3.45;;
23282;SDS011;11810;51.178;3.878;2023-04-15T10:54:00;8.18;;;3.90;;
23282;SDS011;11810;51.178;3.878;2023-04-15T10:56:29;8.93;;;4.00;;
23282;SDS011;11810;51.178;3.878;2023-04-15T10:58:57;7.25;;;4.93;;
23282;SDS011;11810;51.178;3.878;2023-04-15T11:01:48;6.88;;;4.60;;
23282;SDS011;11810;51.178;3.878;2023-04-15T11:12:38;11.23;;;4.63;;
23282;SDS011;11810;51.178;3.878;2023-04-15T11:17:51;6.60;;;5.07;;
23282;SDS011;11810;51.178;3.878;2023-04-15T11:20:17;8.65;;;5.40;;
23282;SDS011;11810;51.178;3.878;2023-04-15T11:22:50;8.50;;;5.40;;
23282;SDS011;11810;51.178;3.878;2023-04-15T11:25:27;6.78;;;5.50;;
23282;SDS011;11810;51.178;3.878;2023-04-15T11:27:55;8.65;;;5.43;;
23282;SDS011;11810;51.178;3.878;2023-04-15T11:30:23;7.72;;;5.40;;
23282;SDS011;11810;51.178;3.878;2023-04-15T11:32:52;8.77;;;5.10;;
23282;SDS011;11810;51.178;3.878;2023-04-15T11:35:20;8.98;;;5.15;;
23282;SDS011;11810;51.178;3.878;2023-04-15T11:37:47;9.13;;;5.43;;
23282;SDS011;11810;51.178;3.878;2023-04-15T11:40:14;6.35;;;5.07;;
23282;SDS011;11810;51.178;3.878;2023-04-15T11:42:47;7.38;;;5.10;;
23282;SDS011;11810;51.178;3.878;2023-04-15T11:45:28;5.15;;;4.57;;
23282;SDS011;11810;51.178;3.878;2023-04-15T11:47:57;5.50;;;4.18;;
23282;SDS011;11810;51.178;3.878;2023-04-15T11:50:33;6.68;;;5.25;;
23282;SDS011;11810;51.178;3.878;2023-04-15T11:53:02;6.85;;;5.60;;
23282;SDS011;11810;51.178;3.878;2023-04-15T11:55:30;7.75;;;5.57;;
23282;SDS011;11810;51.178;3.878;2023-04-15T12:00:39;8.38;;;5.40;;
23282;SDS011;11810;51.178;3.878;2023-04-15T12:03:12;5.97;;;4.78;;
23282;SDS011;11810;51.178;3.878;2023-04-15T12:11:48;10.38;;;6.00;;
23282;SDS011;11810;51.178;3.878;2023-04-15T12:16:50;6.80;;;5.10;;
23282;SDS011;11810;51.178;3.878;2023-04-15T12:19:27;6.25;;;3.80;;
23282;SDS011;11810;51.178;3.878;2023-04-15T12:22:01;6.28;;;4.75;;
23282;SDS011;11810;51.178;3.878;2023-04-15T12:24:32;6.10;;;4.35;;
23282;SDS011;11810;51.178;3.878;2023-04-15T12:27:03;6.05;;;4.22;;
23282;SDS011;11810;51.178;3.878;2023-04-15T12:29:34;6.53;;;4.30;;
23282;SDS011;11810;51.178;3.878;2023-04-15T12:32:10;5.95;;;3.40;;
23282;SDS011;11810;51.178;3.878;2023-04-15T12:34:43;7.97;;;4.22;;
23282;SDS011;11810;51.178;3.878;2023-04-15T12:37:14;6.70;;;4.50;;
23282;SDS011;11810;51.178;3.878;2023-04-15T12:39:41;7.68;;;4.80;;
23282;SDS011;11810;51.178;3.878;2023-04-15T12:42:08;7.05;;;4.40;;
23282;SDS011;11810;51.178;3.878;2023-04-15T12:44:35;9.10;;;5.00;;
23282;SDS011;11810;51.178;3.878;2023-04-15T12:47:02;6.13;;;4.68;;
23282;SDS011;11810;51.178;3.878;2023-04-15T12:49:29;7.97;;;4.80;;
23282;SDS011;11810;51.178;3.878;2023-04-15T12:51:57;6.10;;;4.68;;
23282;SDS011;11810;51.178;3.878;2023-04-15T12:54:24;10.60;;;4.80;;
23282;SDS011;11810;51.178;3.878;2023-04-15T12:56:51;6.97;;;4.78;;
23282;SDS011;11810;51.178;3.878;2023-04-15T12:59:18;11.43;;;4.45;;
23282;SDS011;11810;51.178;3.878;2023-04-15T13:01:45;7.05;;;4.22;;
23282;SDS011;11810;51.178;3.878;2023-04-15T13:04:11;5.75;;;3.40;;
23282;SDS011;11810;51.178;3.878;2023-04-15T13:06:38;5.93;;;3.10;;
23282;SDS011;11810;51.178;3.878;2023-04-15T13:09:04;6.95;;;2.85;;
23282;SDS011;11810;51.178;3.878;2023-04-15T13:11:30;6.35;;;2.80;;
23282;SDS011;11810;51.178;3.878;2023-04-15T13:13:58;7.07;;;2.70;;
23282;SDS011;11810;51.178;3.878;2023-04-15T13:16:26;5.90;;;3.20;;
23282;SDS011;11810;51.178;3.878;2023-04-15T13:18:52;6.75;;;3.10;;
23282;SDS011;11810;51.178;3.878;2023-04-15T13:21:18;6.50;;;3.35;;
23282;SDS011;11810;51.178;3.878;2023-04-15T13:23:44;5.60;;;3.67;;
23282;SDS011;11810;51.178;3.878;2023-04-15T13:26:10;6.72;;;4.00;;
23282;SDS011;11810;51.178;3.878;2023-04-15T13:28:37;7.43;;;4.10;;
23282;SDS011;11810;51.178;3.878;2023-04-15T13:31:03;10.75;;;5.22;;
23282;SDS011;11810;51.178;3.878;2023-04-15T13:33:29;8.52;;;4.88;;
23282;SDS011;11810;51.178;3.878;2023-04-15T13:35:55;11.15;;;6.63;;
23282;SDS011;11810;51.178;3.878;2023-04-15T13:38:21;14.20;;;6.43;;
23282;SDS011;11810;51.178;3.878;2023-04-15T13:40:49;10.63;;;6.07;;
23282;SDS011;11810;51.178;3.878;2023-04-15T13:43:15;12.52;;;6.97;;
23282;SDS011;11810;51.178;3.878;2023-04-15T13:45:41;14.60;;;7.47;;
23282;SDS011;11810;51.178;3.878;2023-04-15T13:48:08;12.45;;;7.03;;
23282;SDS011;11810;51.178;3.878;2023-04-15T13:50:34;13.50;;;7.55;;
23282;SDS011;11810;51.178;3.878;2023-04-15T13:53:00;12.32;;;7.40;;
23282;SDS011;11810;51.178;3.878;2023-04-15T13:55:26;10.73;;;6.78;;
23282;SDS011;11810;51.178;3.878;2023-04-15T13:57:52;12.10;;;7.22;;
23282;SDS011;11810;51.178;3.878;2023-04-15T14:00:18;12.25;;;6.88;;
23282;SDS011;11810;51.178;3.878;2023-04-15T14:02:44;14.88;;;6.35;;
23282;SDS011;11810;51.178;3.878;2023-04-15T14:05:10;12.95;;;7.03;;
23282;SDS011;11810;51.178;3.878;2023-04-15T14:07:36;11.00;;;6.72;;
23282;SDS011;11810;51.178;3.878;2023-04-15T14:10:02;12.02;;;6.30;;
23282;SDS011;11810;51.178;3.878;2023-04-15T14:12:29;10.50;;;6.20;;
23282;SDS011;11810;51.178;3.878;2023-04-15T14:14:54;8.98;;;5.40;;
23282;SDS011;11810;51.178;3.878;2023-04-15T14:17:20;12.05;;;5.65;;
23282;SDS011;11810;51.178;3.878;2023-04-15T14:19:46;9.52;;;5.20;;
23282;SDS011;11810;51.178;3.878;2023-04-15T14:22:12;8.30;;;5.03;;
23282;SDS011;11810;51.178;3.878;2023-04-15T14:24:38;7.47;;;4.97;;
23282;SDS011;11810;51.178;3.878;2023-04-15T14:27:04;11.50;;;5.30;;
23282;SDS011;11810;51.178;3.878;2023-04-15T14:29:32;9.00;;;4.18;;
23282;SDS011;11810;51.178;3.878;2023-04-15T14:31:58;10.30;;;4.75;;
23282;SDS011;11810;51.178;3.878;2023-04-15T14:34:25;10.23;;;4.43;;
23282;SDS011;11810;51.178;3.878;2023-04-15T14:36:51;8.32;;;4.80;;
23282;SDS011;11810;51.178;3.878;2023-04-15T14:39:20;9.10;;;4.50;;
23282;SDS011;11810;51.178;3.878;2023-04-15T14:41:46;6.78;;;3.83;;
23282;SDS011;11810;51.178;3.878;2023-04-15T14:44:12;7.70;;;3.58;;
23282;SDS011;11810;51.178;3.878;2023-04-15T14:46:38;10.18;;;3.85;;
23282;SDS011;11810;51.178;3.878;2023-04-15T14:49:05;6.43;;;3.40;;
23282;SDS011;11810;51.178;3.878;2023-04-15T14:51:31;6.15;;;3.50;;
23282;SDS011;11810;51.178;3.878;2023-04-15T14:53:58;4.07;;;3.05;;
23282;SDS011;11810;51.178;3.878;2023-04-15T14:56:24;8.15;;;3.22;;
23282;SDS011;11810;51.178;3.878;2023-04-15T14:58:50;9.90;;;3.30;;
23282;SDS011;11810;51.178;3.878;2023-04-15T15:01:17;6.85;;;2.83;;